sensor_id;sensor_type;location;lat;lon;timestamp;pressure;altitude;pressure_sealevel;temperature;humidity
42601;BME280;28229;48.856;9.088;2023-07-29T00:02:10;97527.97;;;16.73;100.00
42601;BME280;28229;48.856;9.088;2023-07-29T00:04:36;97518.44;;;16.78;100.00
42601;BME280;28229;48.856;9.088;2023-07-29T00:07:04;97523.75;;;16.78;100.00
42601;BME280;28229;48.856;9.088;2023-07-29T00:09:30;97509.91;;;16.81;100.00
42601;BME280;28229;48.856;9.088;2023-07-29T00:11:57;97507.81;;;16.83;100.00
42601;BME280;28229;48.856;9.088;2023-07-29T00:14:23;97509.41;;;16.84;100.00
42601;BME280;28229;48.856;9.088;2023-07-29T00:16:51;97503.31;;;16.88;100.00
42601;BME280;28229;48.856;9.088;2023-07-29T00:19:17;97508.34;;;16.90;100.00
42601;BME280;28229;48.856;9.088;2023-07-29T00:21:43;97507.28;;;16.91;100.00
42601;BME280;28229;48.856;9.088;2023-07-29T00:24:10;97513.66;;;16.90;100.00
42601;BME280;28229;48.856;9.088;2023-07-29T00:26:36;97503.03;;;16.90;100.00
42601;BME280;28229;48.856;9.088;2023-07-29T00:29:02;97512.59;;;16.86;100.00
42601;BME280;28229;48.856;9.088;2023-07-29T00:31:28;97512.34;;;16.72;100.00
42601;BME280;28229;48.856;9.088;2023-07-29T00:33:54;97517.34;;;16.79;100.00
42601;BME280;28229;48.856;9.088;2023-07-29T00:36:21;97516.81;;;16.82;100.00
42601;BME280;28229;48.856;9.088;2023-07-29T00:38:47;97513.66;;;16.80;100.00
42601;BME280;28229;48.856;9.088;2023-07-29T00:41:15;97503.03;;;16.74;100.00
42601;BME280;28229;48.856;9.088;2023-07-29T00:43:41;97496.66;;;16.75;100.00
42601;BME280;28229;48.856;9.088;2023-07-29T00:46:11;97500.38;;;16.74;100.00
42601;BME280;28229;48.856;9.088;2023-07-29T00:48:39;97497.72;;;16.80;100.00
42601;BME280;28229;48.856;9.088;2023-07-29T00:51:05;97491.03;;;16.82;100.00
42601;BME280;28229;48.856;9.088;2023-07-29T00:53:32;97498.75;;;16.79;100.00
42601;BME280;28229;48.856;9.088;2023-07-29T00:55:58;97505.94;;;16.78;100.00
42601;BME280;28229;48.856;9.088;2023-07-29T00:58:24;97507.00;;;16.82;100.00
42601;BME280;28229;48.856;9.088;2023-07-29T01:00:50;97500.38;;;16.85;100.00
42601;BME280;28229;48.856;9.088;2023-07-29T01:03:17;97492.94;;;16.87;100.00
42601;BME280;28229;48.856;9.088;2023-07-29T01:05:54;97487.38;;;16.88;100.00
42601;BME280;28229;48.856;9.088;2023-07-29T01:08:50;97478.56;;;16.88;100.00
42601;BME280;28229;48.856;9.088;2023-07-29T01:13:52;97485.75;;;16.87;100.00
42601;BME280;28229;48.856;9.088;2023-07-29T01:16:25;97478.56;;;16.93;100.00
42601;BME280;28229;48.856;9.088;2023-07-29T01:18:55;97476.47;;;16.90;100.00
42601;BME280;28229;48.856;9.088;2023-07-29T01:21:24;97478.56;;;16.88;100.00
42601;BME280;28229;48.856;9.088;2023-07-29T01:23:53;97477.78;;;16.77;100.00
42601;BME280;28229;48.856;9.088;2023-07-29T01:26:19;97481.78;;;16.74;100.00
42601;BME280;28229;48.856;9.088;2023-07-29T01:28:45;97485.47;;;16.79;100.00
42601;BME280;28229;48.856;9.088;2023-07-29T01:31:25;97475.41;;;16.75;100.00
42601;BME280;28229;48.856;9.088;2023-07-29T01:33:58;97475.09;;;16.82;100.00
42601;BME280;28229;48.856;9.088;2023-07-29T01:36:28;97476.44;;;16.80;100.00
42601;BME280;28229;48.856;9.088;2023-07-29T01:38:56;97474.34;;;16.92;100.00
42601;BME280;28229;48.856;9.088;2023-07-29T01:41:24;97477.25;;;17.01;100.00
42601;BME280;28229;48.856;9.088;2023-07-29T01:43:52;97468.44;;;17.05;100.00
42601;BME280;28229;48.856;9.088;2023-07-29T01:46:18;97475.09;;;17.08;100.00
42601;BME280;28229;48.856;9.088;2023-07-29T01:48:47;97476.41;;;17.10;100.00
42601;BME280;28229;48.856;9.088;2023-07-29T01:51:14;97465.25;;;17.08;100.00
42601;BME280;28229;48.856;9.088;2023-07-29T01:53:40;97467.91;;;17.13;100.00
42601;BME280;28229;48.856;9.088;2023-07-29T01:56:06;97460.44;;;17.16;100.00
42601;BME280;28229;48.856;9.088;2023-07-29T01:58:34;97453.53;;;17.15;100.00
42601;BME280;28229;48.856;9.088;2023-07-29T02:01:01;97459.66;;;17.10;100.00
42601;BME280;28229;48.856;9.088;2023-07-29T02:03:27;97451.94;;;17.13;100.00
42601;BME280;28229;48.856;9.088;2023-07-29T02:05:54;97451.16;;;17.13;100.00
42601;BME280;28229;48.856;9.088;2023-07-29T02:08:20;97451.41;;;17.17;100.00
42601;BME280;28229;48.856;9.088;2023-07-29T02:10:46;97448.78;;;17.11;100.00
42601;BME280;28229;48.856;9.088;2023-07-29T02:13:14;97453.56;;;17.09;100.00
42601;BME280;28229;48.856;9.088;2023-07-29T02:15:40;97454.06;;;17.17;100.00
42601;BME280;28229;48.856;9.088;2023-07-29T02:18:07;97449.81;;;17.16;100.00
42601;BME280;28229;48.856;9.088;2023-07-29T02:20:33;97443.97;;;17.13;100.00
42601;BME280;28229;48.856;9.088;2023-07-29T02:22:59;97446.13;;;17.06;100.00
42601;BME280;28229;48.856;9.088;2023-07-29T02:25:25;97439.72;;;17.07;100.00
42601;BME280;28229;48.856;9.088;2023-07-29T02:27:52;97446.66;;;17.03;100.00
42601;BME280;28229;48.856;9.088;2023-07-29T02:30:18;97451.44;;;17.06;100.00
42601;BME280;28229;48.856;9.088;2023-07-29T02:32:44;97444.50;;;17.10;100.00
42601;BME280;28229;48.856;9.088;2023-07-29T02:35:11;97445.03;;;17.12;100.00
42601;BME280;28229;48.856;9.088;2023-07-29T02:37:38;97444.25;;;17.07;100.00
42601;BME280;28229;48.856;9.088;2023-07-29T02:40:04;97441.06;;;17.05;100.00
42601;BME280;28229;48.856;9.088;2023-07-29T02:42:32;97440.03;;;17.06;100.00
42601;BME280;28229;48.856;9.088;2023-07-29T02:44:58;97438.41;;;17.10;100.00
42601;BME280;28229;48.856;9.088;2023-07-29T02:47:25;97445.03;;;17.07;100.00
42601;BME280;28229;48.856;9.088;2023-07-29T02:49:51;97446.13;;;17.06;100.00
42601;BME280;28229;48.856;9.088;2023-07-29T02:52:19;97444.53;;;17.05;100.00
42601;BME280;28229;48.856;9.088;2023-07-29T02:54:45;97446.66;;;17.03;100.00
42601;BME280;28229;48.856;9.088;2023-07-29T02:57:13;97432.31;;;17.04;100.00
42601;BME280;28229;48.856;9.088;2023-07-29T02:59:39;97439.22;;;17.05;100.00
42601;BME280;28229;48.856;9.088;2023-07-29T03:02:06;97431.25;;;17.05;100.00
42601;BME280;28229;48.856;9.088;2023-07-29T03:04:32;97426.75;;;16.96;100.00
42601;BME280;28229;48.856;9.088;2023-07-29T03:06:58;97417.97;;;16.95;100.00
42601;BME280;28229;48.856;9.088;2023-07-29T03:09:25;97422.25;;;16.96;100.00
42601;BME280;28229;48.856;9.088;2023-07-29T03:11:51;97409.50;;;16.93;100.00
42601;BME280;28229;48.856;9.088;2023-07-29T03:14:18;97405.53;;;16.85;100.00
42601;BME280;28229;48.856;9.088;2023-07-29T03:16:44;97407.41;;;16.90;100.00
42601;BME280;28229;48.856;9.088;2023-07-29T03:19:14;97409.50;;;16.88;100.00
42601;BME280;28229;48.856;9.088;2023-07-29T03:21:40;97407.66;;;16.93;100.00
42601;BME280;28229;48.856;9.088;2023-07-29T03:24:06;97405.78;;;16.89;100.00
42601;BME280;28229;48.856;9.088;2023-07-29T03:26:33;97406.84;;;16.88;100.00
42601;BME280;28229;48.856;9.088;2023-07-29T03:28:59;97410.31;;;16.88;100.00
42601;BME280;28229;48.856;9.088;2023-07-29T03:31:25;97405.78;;;16.89;100.00
42601;BME280;28229;48.856;9.088;2023-07-29T03:33:51;97414.28;;;16.91;100.00
42601;BME280;28229;48.856;9.088;2023-07-29T03:36:20;97410.06;;;16.90;100.00
42601;BME280;28229;48.856;9.088;2023-07-29T03:38:47;97412.16;;;16.93;100.00
42601;BME280;28229;48.856;9.088;2023-07-29T03:41:13;97405.50;;;16.96;100.00
42601;BME280;28229;48.856;9.088;2023-07-29T03:43:39;97400.97;;;16.96;100.00
42601;BME280;28229;48.856;9.088;2023-07-29T03:46:05;97402.03;;;17.00;100.00
42601;BME280;28229;48.856;9.088;2023-07-29T03:48:32;97404.16;;;16.98;100.00
42601;BME280;28229;48.856;9.088;2023-07-29T03:50:59;97406.28;;;16.96;100.00
42601;BME280;28229;48.856;9.088;2023-07-29T03:53:25;97400.19;;;17.01;100.00
42601;BME280;28229;48.856;9.088;2023-07-29T03:55:52;97403.09;;;16.99;100.00
42601;BME280;28229;48.856;9.088;2023-07-29T03:58:18;97400.97;;;17.01;100.00
42601;BME280;28229;48.856;9.088;2023-07-29T04:00:44;97418.50;;;17.02;100.00
42601;BME280;28229;48.856;9.088;2023-07-29T04:03:10;97411.59;;;17.01;100.00
42601;BME280;28229;48.856;9.088;2023-07-29T04:05:37;97398.31;;;16.96;100.00
42601;BME280;28229;48.856;9.088;2023-07-29T04:08:03;97391.97;;;16.97;100.00
42601;BME280;28229;48.856;9.088;2023-07-29T04:10:29;97395.16;;;16.94;100.00
42601;BME280;28229;48.856;9.088;2023-07-29T04:12:58;97395.41;;;16.92;100.00
42601;BME280;28229;48.856;9.088;2023-07-29T04:15:24;97397.31;;;16.87;100.00
42601;BME280;28229;48.856;9.088;2023-07-29T04:17:50;97394.06;;;16.95;100.00
42601;BME280;28229;48.856;9.088;2023-07-29T04:20:16;97395.69;;;16.91;100.00
42601;BME280;28229;48.856;9.088;2023-07-29T04:22:42;97397.81;;;16.94;100.00
42601;BME280;28229;48.856;9.088;2023-07-29T04:25:09;97398.84;;;16.93;100.00
42601;BME280;28229;48.856;9.088;2023-07-29T04:27:35;97417.72;;;16.97;100.00
42601;BME280;28229;48.856;9.088;2023-07-29T04:30:01;97425.16;;;16.89;100.00
42601;BME280;28229;48.856;9.088;2023-07-29T04:32:28;97424.63;;;16.92;100.00
42601;BME280;28229;48.856;9.088;2023-07-29T04:34:54;97432.34;;;16.94;100.00
42601;BME280;28229;48.856;9.088;2023-07-29T04:37:20;97433.97;;;16.90;100.00
42601;BME280;28229;48.856;9.088;2023-07-29T04:39:46;97451.47;;;16.91;100.00
42601;BME280;28229;48.856;9.088;2023-07-29T04:42:12;97443.78;;;16.89;100.00
42601;BME280;28229;48.856;9.088;2023-07-29T04:44:39;97456.28;;;16.89;100.00
42601;BME280;28229;48.856;9.088;2023-07-29T04:47:05;97453.09;;;16.92;100.00
42601;BME280;28229;48.856;9.088;2023-07-29T04:49:31;97464.25;;;16.89;100.00
42601;BME280;28229;48.856;9.088;2023-07-29T04:51:57;97460.28;;;16.86;100.00
42601;BME280;28229;48.856;9.088;2023-07-29T04:54:23;97446.69;;;16.83;100.00
42601;BME280;28229;48.856;9.088;2023-07-29T04:56:49;97427.28;;;16.82;100.00
42601;BME280;28229;48.856;9.088;2023-07-29T04:59:17;97420.69;;;16.74;100.00
42601;BME280;28229;48.856;9.088;2023-07-29T05:01:43;97419.59;;;16.81;100.00
42601;BME280;28229;48.856;9.088;2023-07-29T05:04:09;97421.78;;;16.63;100.00
42601;BME280;28229;48.856;9.088;2023-07-29T05:06:36;97407.16;;;16.66;100.00
42601;BME280;28229;48.856;9.088;2023-07-29T05:09:16;97408.75;;;16.62;100.00
42601;BME280;28229;48.856;9.088;2023-07-29T05:11:44;97393.63;;;16.62;100.00
42601;BME280;28229;48.856;9.088;2023-07-29T05:14:14;97394.94;;;16.65;100.00
42601;BME280;28229;48.856;9.088;2023-07-29T05:16:42;97391.47;;;16.69;100.00
42601;BME280;28229;48.856;9.088;2023-07-29T05:19:10;97396.53;;;16.66;100.00
42601;BME280;28229;48.856;9.088;2023-07-29T05:21:37;97396.78;;;16.69;100.00
42601;BME280;28229;48.856;9.088;2023-07-29T05:24:07;97397.81;;;16.73;100.00
42601;BME280;28229;48.856;9.088;2023-07-29T05:26:34;97398.34;;;16.81;100.00
42601;BME280;28229;48.856;9.088;2023-07-29T05:29:00;97398.09;;;16.87;100.00
42601;BME280;28229;48.856;9.088;2023-07-29T05:31:26;97397.03;;;16.88;100.00
42601;BME280;28229;48.856;9.088;2023-07-29T05:33:53;97400.97;;;16.96;100.00
42601;BME280;28229;48.856;9.088;2023-07-29T05:36:20;97403.91;;;16.94;100.00
42601;BME280;28229;48.856;9.088;2023-07-29T05:38:46;97404.66;;;17.05;100.00
42601;BME280;28229;48.856;9.088;2023-07-29T05:41:12;97416.88;;;17.11;100.00
42601;BME280;28229;48.856;9.088;2023-07-29T05:43:38;97414.19;;;17.17;100.00
42601;BME280;28229;48.856;9.088;2023-07-29T05:46:04;97420.81;;;17.19;100.00
42601;BME280;28229;48.856;9.088;2023-07-29T05:48:30;97424.78;;;17.22;100.00
42601;BME280;28229;48.856;9.088;2023-07-29T05:50:57;97425.84;;;17.31;100.00
42601;BME280;28229;48.856;9.088;2023-07-29T05:53:23;97421.28;;;17.37;100.00
42601;BME280;28229;48.856;9.088;2023-07-29T05:55:49;97420.44;;;17.46;100.00
42601;BME280;28229;48.856;9.088;2023-07-29T05:58:15;97415.59;;;17.54;100.00
42601;BME280;28229;48.856;9.088;2023-07-29T06:00:42;97405.69;;;17.64;100.00
42601;BME280;28229;48.856;9.088;2023-07-29T06:03:08;97410.16;;;17.74;100.00
42601;BME280;28229;48.856;9.088;2023-07-29T06:05:34;97405.06;;;17.83;100.00
42601;BME280;28229;48.856;9.088;2023-07-29T06:08:02;97401.00;;;17.96;100.00
42601;BME280;28229;48.856;9.088;2023-07-29T06:10:29;97400.97;;;18.01;100.00
42601;BME280;28229;48.856;9.088;2023-07-29T06:12:55;97404.31;;;18.12;100.00
42601;BME280;28229;48.856;9.088;2023-07-29T06:15:21;97399.25;;;18.15;100.00
42601;BME280;28229;48.856;9.088;2023-07-29T06:17:49;97404.50;;;18.25;100.00
42601;BME280;28229;48.856;9.088;2023-07-29T06:20:15;97403.41;;;18.26;100.00
42601;BME280;28229;48.856;9.088;2023-07-29T06:22:41;97410.84;;;18.30;100.00
42601;BME280;28229;48.856;9.088;2023-07-29T06:25:08;97401.81;;;18.25;100.00
42601;BME280;28229;48.856;9.088;2023-07-29T06:27:34;97399.41;;;18.29;100.00
42601;BME280;28229;48.856;9.088;2023-07-29T06:30:01;97411.09;;;18.28;100.00
42601;BME280;28229;48.856;9.088;2023-07-29T06:32:27;97417.56;;;18.22;100.00
42601;BME280;28229;48.856;9.088;2023-07-29T06:34:53;97422.03;;;18.26;100.00
42601;BME280;28229;48.856;9.088;2023-07-29T06:37:20;97426.56;;;18.26;100.00
42601;BME280;28229;48.856;9.088;2023-07-29T06:39:47;97431.59;;;18.33;100.00
42601;BME280;28229;48.856;9.088;2023-07-29T06:42:13;97429.19;;;18.31;100.00
42601;BME280;28229;48.856;9.088;2023-07-29T06:44:40;97429.16;;;18.36;100.00
42601;BME280;28229;48.856;9.088;2023-07-29T06:47:06;97433.06;;;18.44;100.00
42601;BME280;28229;48.856;9.088;2023-07-29T06:49:33;97427.69;;;18.49;100.00
42601;BME280;28229;48.856;9.088;2023-07-29T06:51:59;97426.59;;;18.50;100.00
42601;BME280;28229;48.856;9.088;2023-07-29T06:54:25;97438.88;;;18.51;100.00
42601;BME280;28229;48.856;9.088;2023-07-29T06:56:52;97442.59;;;18.50;100.00
42601;BME280;28229;48.856;9.088;2023-07-29T06:59:18;97444.66;;;18.58;100.00
42601;BME280;28229;48.856;9.088;2023-07-29T07:01:44;97444.09;;;18.61;100.00
42601;BME280;28229;48.856;9.088;2023-07-29T07:04:11;97445.69;;;18.62;100.00
42601;BME280;28229;48.856;9.088;2023-07-29T07:06:37;97445.13;;;18.65;100.00
42601;BME280;28229;48.856;9.088;2023-07-29T07:09:03;97448.34;;;18.62;100.00
42601;BME280;28229;48.856;9.088;2023-07-29T07:11:29;97447.28;;;18.63;100.00
42601;BME280;28229;48.856;9.088;2023-07-29T07:13:55;97447.56;;;18.62;100.00
42601;BME280;28229;48.856;9.088;2023-07-29T07:16:21;97447.84;;;18.60;100.00
42601;BME280;28229;48.856;9.088;2023-07-29T07:18:48;97446.03;;;18.56;100.00
42601;BME280;28229;48.856;9.088;2023-07-29T07:21:14;97450.06;;;18.48;100.00
42601;BME280;28229;48.856;9.088;2023-07-29T07:23:40;97452.19;;;18.51;100.00
42601;BME280;28229;48.856;9.088;2023-07-29T07:26:06;97456.16;;;18.54;100.00
42601;BME280;28229;48.856;9.088;2023-07-29T07:28:33;97453.66;;;18.62;100.00
42601;BME280;28229;48.856;9.088;2023-07-29T07:30:59;97458.75;;;18.59;100.00
42601;BME280;28229;48.856;9.088;2023-07-29T07:33:25;97463.25;;;18.63;100.00
42601;BME280;28229;48.856;9.088;2023-07-29T07:35:51;97462.44;;;18.68;100.00
42601;BME280;28229;48.856;9.088;2023-07-29T07:38:17;97462.72;;;18.67;100.00
42601;BME280;28229;48.856;9.088;2023-07-29T07:40:52;97462.13;;;18.70;100.00
42601;BME280;28229;48.856;9.088;2023-07-29T07:43:19;97453.28;;;18.74;100.00
42601;BME280;28229;48.856;9.088;2023-07-29T07:45:45;97456.19;;;18.78;100.00
42601;BME280;28229;48.856;9.088;2023-07-29T07:48:12;97465.75;;;18.84;100.00
42601;BME280;28229;48.856;9.088;2023-07-29T07:50:39;97461.41;;;18.93;100.00
42601;BME280;28229;48.856;9.088;2023-07-29T07:53:05;97452.81;;;18.96;100.00
42601;BME280;28229;48.856;9.088;2023-07-29T07:55:31;97442.06;;;19.07;100.00
42601;BME280;28229;48.856;9.088;2023-07-29T07:57:58;97441.53;;;19.29;100.00
42601;BME280;28229;48.856;9.088;2023-07-29T08:00:24;97438.25;;;19.56;100.00
42601;BME280;28229;48.856;9.088;2023-07-29T08:02:50;97445.25;;;19.71;100.00
42601;BME280;28229;48.856;9.088;2023-07-29T08:05:16;97443.69;;;19.89;100.00
42601;BME280;28229;48.856;9.088;2023-07-29T08:07:42;97450.47;;;20.00;100.00
42601;BME280;28229;48.856;9.088;2023-07-29T08:10:09;97449.56;;;20.24;100.00
42601;BME280;28229;48.856;9.088;2023-07-29T08:12:35;97466.94;;;20.40;100.00
42601;BME280;28229;48.856;9.088;2023-07-29T08:15:01;97471.41;;;20.59;99.78
42601;BME280;28229;48.856;9.088;2023-07-29T08:17:27;97483.56;;;20.70;99.62
42601;BME280;28229;48.856;9.088;2023-07-29T08:19:53;97493.47;;;20.83;97.08
42601;BME280;28229;48.856;9.088;2023-07-29T08:22:19;97494.66;;;20.77;96.71
42601;BME280;28229;48.856;9.088;2023-07-29T08:24:46;97496.38;;;20.54;93.87
42601;BME280;28229;48.856;9.088;2023-07-29T08:27:12;97484.69;;;20.50;95.59
42601;BME280;28229;48.856;9.088;2023-07-29T08:29:39;97485.56;;;20.45;95.62
42601;BME280;28229;48.856;9.088;2023-07-29T08:32:05;97482.09;;;20.45;94.00
42601;BME280;28229;48.856;9.088;2023-07-29T08:34:31;97477.53;;;20.45;93.86
42601;BME280;28229;48.856;9.088;2023-07-29T08:36:57;97478.13;;;20.42;94.04
42601;BME280;28229;48.856;9.088;2023-07-29T08:39:23;97482.00;;;20.50;92.56
42601;BME280;28229;48.856;9.088;2023-07-29T08:41:56;97479.97;;;20.61;90.77
42601;BME280;28229;48.856;9.088;2023-07-29T08:44:26;97484.69;;;20.83;92.21
42601;BME280;28229;48.856;9.088;2023-07-29T08:46:56;97479.03;;;21.12;92.32
42601;BME280;28229;48.856;9.088;2023-07-29T08:49:37;97488.78;;;21.36;88.09
42601;BME280;28229;48.856;9.088;2023-07-29T08:52:05;97480.84;;;21.58;89.53
42601;BME280;28229;48.856;9.088;2023-07-29T08:54:32;97479.75;;;21.59;86.10
42601;BME280;28229;48.856;9.088;2023-07-29T08:56:59;97486.56;;;21.65;86.44
42601;BME280;28229;48.856;9.088;2023-07-29T08:59:25;97489.66;;;21.45;83.65
42601;BME280;28229;48.856;9.088;2023-07-29T09:01:53;97488.38;;;21.56;85.75
42601;BME280;28229;48.856;9.088;2023-07-29T09:04:22;97490.34;;;21.78;86.68
42601;BME280;28229;48.856;9.088;2023-07-29T09:06:50;97473.84;;;21.85;83.19
42601;BME280;28229;48.856;9.088;2023-07-29T09:09:17;97478.59;;;21.88;83.94
42601;BME280;28229;48.856;9.088;2023-07-29T09:11:43;97481.16;;;21.93;84.43
42601;BME280;28229;48.856;9.088;2023-07-29T09:14:10;97475.59;;;22.03;83.11
42601;BME280;28229;48.856;9.088;2023-07-29T09:16:37;97472.16;;;22.12;82.50
42601;BME280;28229;48.856;9.088;2023-07-29T09:19:04;97473.91;;;22.30;81.21
42601;BME280;28229;48.856;9.088;2023-07-29T09:21:31;97474.28;;;22.37;80.95
42601;BME280;28229;48.856;9.088;2023-07-29T09:24:02;97474.13;;;22.65;79.42
42601;BME280;28229;48.856;9.088;2023-07-29T09:26:29;97466.34;;;22.86;78.58
42601;BME280;28229;48.856;9.088;2023-07-29T09:28:58;97470.88;;;23.08;76.53
42601;BME280;28229;48.856;9.088;2023-07-29T09:31:26;97463.66;;;23.17;74.02
42601;BME280;28229;48.856;9.088;2023-07-29T09:34:00;97459.91;;;23.36;73.75
42601;BME280;28229;48.856;9.088;2023-07-29T09:36:27;97456.16;;;23.54;73.73
42601;BME280;28229;48.856;9.088;2023-07-29T09:38:54;97458.16;;;23.23;72.41
42601;BME280;28229;48.856;9.088;2023-07-29T09:41:28;97456.84;;;23.11;72.21
42601;BME280;28229;48.856;9.088;2023-07-29T09:43:59;97461.34;;;23.02;72.01
42601;BME280;28229;48.856;9.088;2023-07-29T09:46:27;97461.00;;;22.95;73.54
42601;BME280;28229;48.856;9.088;2023-07-29T09:48:57;97453.88;;;22.90;74.42
42601;BME280;28229;48.856;9.088;2023-07-29T09:51:23;97457.66;;;22.80;75.07
42601;BME280;28229;48.856;9.088;2023-07-29T09:53:51;97457.41;;;22.68;77.40
42601;BME280;28229;48.856;9.088;2023-07-29T09:56:25;97463.41;;;22.65;78.33
42601;BME280;28229;48.856;9.088;2023-07-29T09:58:53;97464.16;;;22.34;74.29
42601;BME280;28229;48.856;9.088;2023-07-29T10:01:21;97482.03;;;22.25;76.36
42601;BME280;28229;48.856;9.088;2023-07-29T10:03:48;97491.41;;;22.14;80.04
42601;BME280;28229;48.856;9.088;2023-07-29T10:06:17;97491.22;;;22.10;82.36
42601;BME280;28229;48.856;9.088;2023-07-29T10:08:43;97487.56;;;22.06;83.72
42601;BME280;28229;48.856;9.088;2023-07-29T10:11:10;97494.34;;;22.03;82.47
42601;BME280;28229;48.856;9.088;2023-07-29T10:13:37;97480.56;;;21.96;81.40
42601;BME280;28229;48.856;9.088;2023-07-29T10:16:04;97474.97;;;22.06;82.67
42601;BME280;28229;48.856;9.088;2023-07-29T10:18:32;97481.53;;;22.00;80.99
42601;BME280;28229;48.856;9.088;2023-07-29T10:20:59;97482.34;;;21.87;80.60
42601;BME280;28229;48.856;9.088;2023-07-29T10:23:27;97486.16;;;21.86;79.92
42601;BME280;28229;48.856;9.088;2023-07-29T10:26:05;97483.34;;;21.91;81.86
42601;BME280;28229;48.856;9.088;2023-07-29T10:28:32;97486.19;;;22.09;80.71
42601;BME280;28229;48.856;9.088;2023-07-29T10:30:59;97482.91;;;22.34;78.59
42601;BME280;28229;48.856;9.088;2023-07-29T10:33:26;97488.75;;;22.59;78.04
42601;BME280;28229;48.856;9.088;2023-07-29T10:35:53;97481.53;;;22.91;78.56
42601;BME280;28229;48.856;9.088;2023-07-29T10:38:23;97480.38;;;23.14;75.67
42601;BME280;28229;48.856;9.088;2023-07-29T10:40:57;97483.44;;;23.30;74.67
42601;BME280;28229;48.856;9.088;2023-07-29T10:43:38;97486.47;;;23.46;73.57
42601;BME280;28229;48.856;9.088;2023-07-29T10:46:21;97486.66;;;23.76;72.70
42601;BME280;28229;48.856;9.088;2023-07-29T10:51:28;97490.19;;;24.03;68.94
42601;BME280;28229;48.856;9.088;2023-07-29T10:58:15;97474.50;;;24.40;67.65
42601;BME280;28229;48.856;9.088;2023-07-29T11:00:45;97471.34;;;24.64;66.05
42601;BME280;28229;48.856;9.088;2023-07-29T11:03:13;97471.03;;;24.65;64.75
42601;BME280;28229;48.856;9.088;2023-07-29T11:05:53;97474.81;;;24.64;64.46
42601;BME280;28229;48.856;9.088;2023-07-29T11:08:29;97485.88;;;24.72;63.83
42601;BME280;28229;48.856;9.088;2023-07-29T11:11:05;97486.22;;;24.61;63.99
42601;BME280;28229;48.856;9.088;2023-07-29T11:13:36;97488.75;;;24.58;64.39
42601;BME280;28229;48.856;9.088;2023-07-29T11:16:03;97486.88;;;24.58;64.34
42601;BME280;28229;48.856;9.088;2023-07-29T11:18:34;97484.66;;;24.60;63.72
42601;BME280;28229;48.856;9.088;2023-07-29T11:21:03;97481.78;;;24.65;62.31
42601;BME280;28229;48.856;9.088;2023-07-29T11:23:30;97478.97;;;24.53;61.69
42601;BME280;28229;48.856;9.088;2023-07-29T11:25:57;97477.66;;;24.42;62.23
42601;BME280;28229;48.856;9.088;2023-07-29T11:28:25;97468.34;;;24.39;62.49
42601;BME280;28229;48.856;9.088;2023-07-29T11:30:51;97473.44;;;24.58;63.31
42601;BME280;28229;48.856;9.088;2023-07-29T11:33:20;97463.81;;;24.96;62.13
42601;BME280;28229;48.856;9.088;2023-07-29T11:35:47;97456.13;;;25.15;59.66
42601;BME280;28229;48.856;9.088;2023-07-29T11:38:17;97456.56;;;25.26;58.99
42601;BME280;28229;48.856;9.088;2023-07-29T11:40:59;97458.22;;;25.39;59.54
42601;BME280;28229;48.856;9.088;2023-07-29T11:43:26;97462.38;;;25.58;59.46
42601;BME280;28229;48.856;9.088;2023-07-29T11:45:53;97457.69;;;25.76;57.24
42601;BME280;28229;48.856;9.088;2023-07-29T11:48:31;97464.84;;;25.93;57.63
42601;BME280;28229;48.856;9.088;2023-07-29T11:51:00;97471.50;;;25.95;56.55
42601;BME280;28229;48.856;9.088;2023-07-29T11:53:28;97461.13;;;26.06;57.17
42601;BME280;28229;48.856;9.088;2023-07-29T11:55:56;97457.66;;;26.18;57.28
42601;BME280;28229;48.856;9.088;2023-07-29T11:58:22;97453.91;;;26.31;56.99
42601;BME280;28229;48.856;9.088;2023-07-29T12:00:48;97462.56;;;26.37;55.29
42601;BME280;28229;48.856;9.088;2023-07-29T12:03:14;97456.53;;;26.52;55.19
42601;BME280;28229;48.856;9.088;2023-07-29T12:05:43;97459.22;;;26.40;52.93
42601;BME280;28229;48.856;9.088;2023-07-29T12:08:24;97464.78;;;26.23;53.38
42601;BME280;28229;48.856;9.088;2023-07-29T12:10:51;97451.09;;;26.28;53.58
42601;BME280;28229;48.856;9.088;2023-07-29T12:13:17;97455.06;;;26.09;54.39
42601;BME280;28229;48.856;9.088;2023-07-29T12:15:43;97442.81;;;25.91;52.79
42601;BME280;28229;48.856;9.088;2023-07-29T12:18:09;97453.28;;;25.92;54.12
42601;BME280;28229;48.856;9.088;2023-07-29T12:20:38;97451.84;;;25.95;55.26
42601;BME280;28229;48.856;9.088;2023-07-29T12:23:04;97454.72;;;25.90;54.02
42601;BME280;28229;48.856;9.088;2023-07-29T12:25:34;97462.13;;;25.93;54.98
42601;BME280;28229;48.856;9.088;2023-07-29T12:28:05;97458.19;;;25.69;50.17
42601;BME280;28229;48.856;9.088;2023-07-29T12:30:31;97456.22;;;25.57;49.33
42601;BME280;28229;48.856;9.088;2023-07-29T12:32:57;97460.97;;;25.22;48.25
42601;BME280;28229;48.856;9.088;2023-07-29T12:35:24;97464.81;;;25.21;49.08
42601;BME280;28229;48.856;9.088;2023-07-29T12:38:00;97462.25;;;25.33;48.68
42601;BME280;28229;48.856;9.088;2023-07-29T12:40:26;97457.41;;;25.48;48.34
42601;BME280;28229;48.856;9.088;2023-07-29T12:42:53;97452.69;;;25.65;47.39
42601;BME280;28229;48.856;9.088;2023-07-29T12:45:20;97457.34;;;25.77;46.64
42601;BME280;28229;48.856;9.088;2023-07-29T12:47:48;97449.19;;;25.86;48.68
42601;BME280;28229;48.856;9.088;2023-07-29T12:50:14;97434.81;;;26.03;47.51
42601;BME280;28229;48.856;9.088;2023-07-29T12:52:41;97440.19;;;26.24;47.90
42601;BME280;28229;48.856;9.088;2023-07-29T12:55:07;97444.06;;;26.48;48.15
42601;BME280;28229;48.856;9.088;2023-07-29T12:57:41;97431.44;;;26.85;46.65
42601;BME280;28229;48.856;9.088;2023-07-29T13:00:08;97433.47;;;27.13;46.98
42601;BME280;28229;48.856;9.088;2023-07-29T13:02:35;97434.59;;;27.49;46.08
42601;BME280;28229;48.856;9.088;2023-07-29T13:05:01;97433.00;;;27.60;46.14